Time;durP1;ratioP1;P1;durP2;ratioP2;P2;SDS_P1;SDS_P2;PMS_P1;PMS_P2;Temp;Humidity;BMP_temperature;BMP_pressure;BME280_temperature;BME280_humidity;BME280_pressure;Samples;Min_cycle;Max_cycle;Signal;HPM_P1;HPM_P2
2024/01/02 00:01:25;;;;;;;3.28;0.90;;;;;;;7.12;59.00;96115.16;4976151;28;20058;-80
2024/01/02 00:03:53;;;;;;;3.05;0.68;;;;;;;7.11;59.28;96105.78;4975939;28;20424;-80
2024/01/02 00:06:20;;;;;;;3.95;0.85;;;;;;;7.12;59.53;96097.00;4975237;28;20074;-81
2024/01/02 00:08:48;;;;;;;3.85;0.98;;;;;;;7.14;59.14;96094.25;4976995;28;20057;-80
2024/01/02 00:11:15;;;;;;;1.45;0.68;;;;;;;7.15;60.45;96094.09;4976120;28;20134;-80
2024/01/02 00:13:43;;;;;;;2.67;0.90;;;;;;;7.18;60.33;96079.97;4975729;28;20121;-80
2024/01/02 00:16:10;;;;;;;4.10;1.55;;;;;;;7.20;61.00;96072.81;4975777;28;20047;-80
2024/01/02 00:18:39;;;;;;;4.80;0.80;;;;;;;7.20;60.58;96067.63;4975928;28;20138;-80
2024/01/02 00:21:07;;;;;;;3.30;0.70;;;;;;;7.21;60.70;96070.06;4977146;28;20526;-80
2024/01/02 00:23:35;;;;;;;2.70;0.70;;;;;;;7.23;61.15;96064.66;4976765;28;20114;-80
2024/01/02 00:26:03;;;;;;;4.72;1.17;;;;;;;7.23;60.06;96059.47;4975644;28;20047;-80
2024/01/02 00:28:30;;;;;;;3.28;0.40;;;;;;;7.23;59.74;96056.88;4975938;28;20053;-80
2024/01/02 00:30:58;;;;;;;1.55;0.50;;;;;;;7.24;59.52;96048.13;4975583;28;20058;-81
2024/01/02 00:33:26;;;;;;;3.78;1.63;;;;;;;7.24;59.14;96042.97;4975510;28;20051;-80
2024/01/02 00:35:55;;;;;;;2.47;0.80;;;;;;;7.22;59.68;96048.31;4975652;28;20050;-80
2024/01/02 00:38:25;;;;;;;1.95;0.60;;;;;;;7.22;59.25;96035.34;4975463;28;20113;-80
2024/01/02 00:40:52;;;;;;;2.50;1.08;;;;;;;7.22;59.01;96034.53;4975685;28;20051;-80
2024/01/02 00:43:20;;;;;;;3.50;1.30;;;;;;;7.20;59.73;96028.72;4974797;28;20051;-80
2024/01/02 00:45:48;;;;;;;3.58;0.70;;;;;;;7.19;60.14;96020.13;4975169;28;20153;-80
2024/01/02 00:48:15;;;;;;;3.20;0.70;;;;;;;7.18;59.44;96022.91;4975375;28;20073;-79
2024/01/02 00:50:43;;;;;;;1.50;0.70;;;;;;;7.16;59.92;96014.47;4975351;28;20224;-80
2024/01/02 00:53:12;;;;;;;1.17;0.77;;;;;;;7.17;60.45;96010.88;4974669;28;20061;-80
2024/01/02 00:55:39;;;;;;;2.55;0.50;;;;;;;7.15;60.64;96013.69;4975272;28;20109;-80
2024/01/02 00:58:07;;;;;;;5.68;1.10;;;;;;;7.14;60.19;96004.28;4975030;28;20571;-80
2024/01/02 01:00:34;;;;;;;5.82;0.75;;;;;;;7.13;60.17;96004.47;4974444;28;20132;-80
2024/01/02 01:03:02;;;;;;;2.03;0.43;;;;;;;7.11;60.58;96011.59;4972834;28;20089;-80
2024/01/02 01:05:30;;;;;;;2.33;0.63;;;;;;;7.10;60.76;96004.78;4973061;28;20051;-80
2024/01/02 01:07:57;;;;;;;2.78;0.68;;;;;;;7.08;61.18;96004.16;4972915;28;20507;-80
2024/01/02 01:10:26;;;;;;;1.58;0.70;;;;;;;7.10;61.18;95999.59;4973052;28;20094;-80
2024/01/02 01:12:54;;;;;;;1.83;0.40;;;;;;;7.11;60.61;96001.22;4972723;28;20047;-80
2024/01/02 01:15:21;;;;;;;1.50;0.50;;;;;;;7.09;60.54;95998.00;4972970;28;20055;-80
2024/01/02 01:17:49;;;;;;;3.40;0.98;;;;;;;7.09;60.68;96003.19;4973892;28;20500;-80
2024/01/02 01:20:17;;;;;;;2.15;0.73;;;;;;;7.09;61.11;95998.00;4974444;28;20590;-80
2024/01/02 01:22:44;;;;;;;1.70;0.90;;;;;;;7.09;61.08;95996.22;4974667;28;20050;-80
2024/01/02 01:25:12;;;;;;;1.25;0.65;;;;;;;7.11;61.25;95990.88;4974511;28;20059;-80
2024/01/02 01:27:41;;;;;;;2.55;0.57;;;;;;;7.12;61.05;95982.09;4974875;28;20053;-79
2024/01/02 01:30:09;;;;;;;2.42;0.57;;;;;;;7.13;61.09;95976.72;4974376;28;20571;-80
2024/01/02 01:32:38;;;;;;;3.17;1.08;;;;;;;7.12;61.52;95966.53;4974014;28;20054;-80
2024/01/02 01:35:07;;;;;;;1.25;0.63;;;;;;;7.13;61.67;95973.34;4974388;28;20054;-80
2024/01/02 01:37:35;;;;;;;6.10;0.95;;;;;;;7.12;61.49;95971.72;4974418;28;20432;-80
2024/01/02 01:40:02;;;;;;;2.85;0.75;;;;;;;7.11;61.26;95959.75;4974527;28;20053;-80
2024/01/02 01:42:30;;;;;;;5.40;0.70;;;;;;;7.11;61.65;95959.75;4973753;28;20059;-79
2024/01/02 01:44:59;;;;;;;2.35;0.60;;;;;;;7.13;61.66;95962.97;4974201;28;20053;-80
2024/01/02 01:47:27;;;;;;;1.65;0.90;;;;;;;7.10;61.31;95960.72;4974206;28;20061;-81
2024/01/02 01:49:54;;;;;;;2.55;0.75;;;;;;;7.10;61.35;95958.13;4973778;28;20125;-80
2024/01/02 01:52:22;;;;;;;1.83;0.93;;;;;;;7.08;61.43;95955.69;4972830;28;20047;-79
2024/01/02 01:54:50;;;;;;;2.22;0.70;;;;;;;7.09;62.20;95957.31;4965663;28;20122;-80
2024/01/02 01:57:20;;;;;;;2.67;1.00;;;;;;;7.11;61.87;95964.94;4955249;29;20055;-81
2024/01/02 01:59:48;;;;;;;3.15;1.15;;;;;;;7.11;62.00;95959.75;4957526;28;20046;-80
2024/01/02 02:02:18;;;;;;;2.63;0.80;;;;;;;7.11;62.35;95957.94;4954404;28;20062;-80
2024/01/02 02:04:50;;;;;;;2.03;0.90;;;;;;;7.11;62.00;95944.19;4954914;28;20090;-80
2024/01/02 02:07:17;;;;;;;2.13;0.80;;;;;;;7.11;61.96;95942.38;4954650;29;20130;-80
2024/01/02 02:09:49;;;;;;;2.55;0.90;;;;;;;7.10;62.08;95945.16;4954613;28;20047;-80
2024/01/02 02:12:17;;;;;;;2.78;1.02;;;;;;;7.10;61.83;95942.56;4954769;29;20062;-80
2024/01/02 02:14:44;;;;;;;2.85;0.80;;;;;;;7.09;62.17;95944.34;4954623;29;20063;-80
2024/01/02 02:17:28;;;;;;;1.55;0.68;;;;;;;7.10;62.84;95937.38;4954339;29;20055;-80
2024/01/02 02:19:56;;;;;;;3.20;0.65;;;;;;;7.10;62.05;95942.56;4955053;28;20496;-80
2024/01/02 02:22:32;;;;;;;2.28;0.93;;;;;;;7.10;61.88;95922.59;4954193;29;20425;-80
2024/01/02 02:25:01;;;;;;;2.38;0.70;;;;;;;7.10;61.78;95914.81;4954347;29;20505;-80
2024/01/02 02:27:29;;;;;;;3.28;1.17;;;;;;;7.11;62.25;95913.06;4954215;29;20047;-80
2024/01/02 02:29:57;;;;;;;1.55;0.73;;;;;;;7.11;62.02;95919.03;4953717;28;20531;-80
2024/01/02 02:32:25;;;;;;;1.75;0.70;;;;;;;7.10;62.31;95903.66;4953948;28;20058;-80
2024/01/02 02:34:52;;;;;;;1.38;0.60;;;;;;;7.09;62.40;95895.06;4954273;29;20058;-80
2024/01/02 02:37:20;;;;;;;1.00;0.70;;;;;;;7.10;63.55;95891.47;4954352;28;20082;-80
2024/01/02 02:39:48;;;;;;;2.38;0.88;;;;;;;7.11;63.01;95892.31;4958304;29;20059;-80
2024/01/02 02:42:17;;;;;;;2.55;0.98;;;;;;;7.10;63.05;95899.25;4968096;28;20074;-81
2024/01/02 02:44:44;;;;;;;1.17;0.80;;;;;;;7.10;63.50;95883.69;4966622;28;20158;-80
2024/01/02 02:47:12;;;;;;;1.00;0.75;;;;;;;7.10;63.73;95880.31;4955814;28;20141;-80
2024/01/02 02:49:40;;;;;;;2.13;0.82;;;;;;;7.14;63.98;95876.38;4954802;28;20047;-81
2024/01/02 02:52:08;;;;;;;1.58;0.77;;;;;;;7.15;64.06;95865.84;4954006;28;20134;-80
2024/01/02 02:54:36;;;;;;;2.15;0.95;;;;;;;7.16;63.68;95858.84;4954132;28;20082;-80
2024/01/02 02:57:04;;;;;;;2.25;0.85;;;;;;;7.16;64.02;95853.66;4957118;29;20051;-81
2024/01/02 02:59:32;;;;;;;3.67;0.80;;;;;;;7.15;63.92;95842.50;4954594;28;20082;-80
2024/01/02 03:02:00;;;;;;;2.28;0.70;;;;;;;7.16;64.02;95843.28;4953986;29;20428;-80
2024/01/02 03:04:28;;;;;;;3.10;0.82;;;;;;;7.16;64.05;95845.88;4954596;28;20143;-81
2024/01/02 03:06:56;;;;;;;2.33;1.00;;;;;;;7.15;64.33;95837.31;4954010;29;20079;-80
2024/01/02 03:09:23;;;;;;;2.30;0.80;;;;;;;7.16;64.31;95835.50;4954154;28;20432;-80
2024/01/02 03:11:52;;;;;;;0.88;0.80;;;;;;;7.16;65.43;95827.72;4953942;29;20058;-80
2024/01/02 03:14:20;;;;;;;1.35;0.57;;;;;;;7.18;64.92;95825.75;4954241;29;20053;-80
2024/01/02 03:16:49;;;;;;;1.42;0.85;;;;;;;7.18;64.83;95833.53;4953925;29;20062;-80
2024/01/02 03:19:16;;;;;;;3.80;0.77;;;;;;;7.15;64.67;95823.50;4954270;29;20075;-80
2024/01/02 03:21:44;;;;;;;2.22;0.80;;;;;;;7.15;65.55;95810.53;4953466;28;20086;-80
2024/01/02 03:24:12;;;;;;;2.33;1.02;;;;;;;7.14;65.42;95806.34;4953848;29;20058;-80
2024/01/02 03:26:39;;;;;;;3.25;0.90;;;;;;;7.13;64.88;95802.97;4953799;28;20098;-80
2024/01/02 03:29:07;;;;;;;4.47;0.95;;;;;;;7.11;65.79;95789.38;4953965;29;20047;-79
2024/01/02 03:31:34;;;;;;;3.88;1.15;;;;;;;7.10;65.32;95785.16;4953461;28;20054;-80
2024/01/02 03:34:04;;;;;;;2.20;0.77;;;;;;;7.09;66.12;95785.34;4953518;29;20427;-80
2024/01/02 03:36:31;;;;;;;2.13;1.23;;;;;;;7.08;65.72;95784.53;4953492;28;20047;-80
2024/01/02 03:38:59;;;;;;;4.07;1.30;;;;;;;7.05;65.60;95768.53;4964802;29;20055;-79
2024/01/02 03:41:27;;;;;;;1.30;0.80;;;;;;;7.01;65.66;95761.09;4977046;28;20075;-80
2024/01/02 03:43:54;;;;;;;1.80;0.75;;;;;;;6.96;65.60;95755.66;5017526;23;20039;-78
2024/01/02 03:46:22;;;;;;;1.15;0.80;;;;;;;6.89;65.89;95749.59;4968863;29;20069;-78
2024/01/02 03:48:50;;;;;;;0.80;0.80;;;;;;;6.85;65.96;95747.53;4960648;29;20143;-78
2024/01/02 03:51:19;;;;;;;2.10;0.98;;;;;;;6.79;65.93;95743.88;4959052;28;20515;-78
2024/01/02 03:53:46;;;;;;;3.67;0.85;;;;;;;6.75;66.25;95735.63;4958450;29;20138;-79
2024/01/02 03:56:15;;;;;;;3.35;1.00;;;;;;;6.73;66.12;95736.78;4958310;29;20078;-78
2024/01/02 03:58:43;;;;;;;0.80;0.65;;;;;;;6.69;66.34;95727.75;4957916;29;20077;-78
2024/01/02 04:01:10;;;;;;;2.97;1.17;;;;;;;6.67;66.30;95716.78;4957068;29;20150;-81
2024/01/02 04:03:38;;;;;;;3.05;1.08;;;;;;;6.66;66.49;95722.94;4957148;28;20051;-81
2024/01/02 04:06:06;;;;;;;1.73;0.93;;;;;;;6.62;66.49;95706.94;4957189;28;20204;-81
2024/01/02 04:08:37;;;;;;;3.28;0.88;;;;;;;6.63;68.25;95707.78;4960798;29;20138;-81
2024/01/02 04:11:05;;;;;;;1.83;0.95;;;;;;;6.63;67.28;95679.25;4956845;28;20047;-81
2024/01/02 04:13:32;;;;;;;1.92;0.90;;;;;;;6.64;67.45;95683.44;4956418;28;20428;-80
2024/01/02 04:16:00;;;;;;;2.25;1.20;;;;;;;6.63;67.71;95682.66;4956702;29;20139;-81
2024/01/02 04:18:27;;;;;;;1.33;0.98;;;;;;;6.63;67.47;95668.91;4956728;29;20051;-81
2024/01/02 04:20:56;;;;;;;3.95;1.23;;;;;;;6.61;67.81;95669.06;4956634;28;20071;-81
2024/01/02 04:23:24;;;;;;;3.28;1.17;;;;;;;6.62;68.17;95665.47;4956270;28;20059;-81
2024/01/02 04:25:53;;;;;;;2.92;1.02;;;;;;;6.59;67.86;95661.47;4956142;28;20493;-80
2024/01/02 04:28:20;;;;;;;1.95;1.00;;;;;;;6.55;68.18;95644.66;4956455;29;20058;-81
2024/01/02 04:30:48;;;;;;;4.15;1.17;;;;;;;6.52;68.22;95637.28;4956144;28;20497;-81
2024/01/02 04:33:15;;;;;;;3.28;0.90;;;;;;;6.48;68.67;95630.84;4956258;29;20051;-80
2024/01/02 04:35:43;;;;;;;2.85;1.30;;;;;;;6.47;69.08;95641.38;4956296;28;20053;-81
2024/01/02 04:38:10;;;;;;;1.52;1.00;;;;;;;6.46;69.15;95629.41;4956403;29;20086;-81
2024/01/02 04:40:38;;;;;;;1.95;1.02;;;;;;;6.43;68.83;95632.34;4956230;28;20114;-81
2024/01/02 04:43:07;;;;;;;1.85;1.40;;;;;;;6.42;69.58;95618.59;4955410;28;20057;-80
2024/01/02 04:45:35;;;;;;;3.83;1.35;;;;;;;6.40;69.16;95615.38;4956269;29;20058;-81
2024/01/02 04:48:02;;;;;;;2.55;1.27;;;;;;;6.35;68.88;95620.31;4957721;29;20053;-79
2024/01/02 04:50:30;;;;;;;2.88;0.95;;;;;;;6.30;69.27;95604.50;4956519;29;20401;-78
2024/01/02 04:52:58;;;;;;;6.95;1.63;;;;;;;6.26;69.09;95613.63;4955996;28;20061;-78
2024/01/02 04:55:26;;;;;;;3.10;1.00;;;;;;;6.21;69.70;95592.59;4956413;28;20054;-77
2024/01/02 04:57:53;;;;;;;3.15;1.10;;;;;;;6.18;69.64;95586.00;4956389;29;20134;-78
2024/01/02 05:00:22;;;;;;;4.90;1.20;;;;;;;6.15;69.76;95605.28;4956157;29;20059;-78
2024/01/02 05:02:49;;;;;;;2.15;1.00;;;;;;;6.13;69.81;95599.50;4955889;28;20059;-78
2024/01/02 05:05:18;;;;;;;3.90;1.08;;;;;;;6.14;70.22;95580.41;4959728;29;20055;-79
2024/01/02 05:07:45;;;;;;;2.53;1.20;;;;;;;6.14;70.19;95585.59;4955859;28;20047;-78
2024/01/02 05:10:13;;;;;;;4.00;1.40;;;;;;;6.12;70.55;95577.19;4956195;29;20141;-79
2024/01/02 05:12:41;;;;;;;1.58;0.73;;;;;;;6.12;70.55;95566.00;4955701;29;20420;-78
2024/01/02 05:15:09;;;;;;;4.00;0.93;;;;;;;6.12;71.12;95566.81;4955971;28;20428;-78
2024/01/02 05:17:38;;;;;;;6.85;1.15;;;;;;;6.13;71.21;95565.03;4955538;28;20083;-78
2024/01/02 05:20:08;;;;;;;5.60;1.45;;;;;;;6.13;70.93;95568.41;4955804;28;20086;-78
2024/01/02 05:22:36;;;;;;;2.42;1.25;;;;;;;6.13;71.17;95562.44;4955273;28;20060;-78
2024/01/02 05:25:04;;;;;;;3.83;0.98;;;;;;;6.14;71.27;95564.03;4955884;28;20051;-78
2024/01/02 05:27:31;;;;;;;2.92;1.50;;;;;;;6.15;71.27;95565.66;4955314;28;20142;-78
2024/01/02 05:29:59;;;;;;;2.45;1.20;;;;;;;6.15;71.35;95545.75;4955614;28;20154;-79
2024/01/02 05:32:26;;;;;;;3.20;1.40;;;;;;;6.15;71.27;95548.34;4955415;29;20425;-78
2024/01/02 05:34:55;;;;;;;2.17;1.05;;;;;;;6.17;71.55;95541.19;4955524;28;20516;-78
2024/01/02 05:37:23;;;;;;;4.35;1.70;;;;;;;6.17;71.65;95532.63;4955793;28;20114;-78
2024/01/02 05:39:51;;;;;;;2.63;1.27;;;;;;;6.18;71.30;95537.59;4955531;28;20047;-79
2024/01/02 05:42:18;;;;;;;4.18;1.17;;;;;;;6.18;71.32;95549.75;4955267;29;20083;-78
2024/01/02 05:44:47;;;;;;;3.28;1.15;;;;;;;6.18;71.41;95535.00;4955664;28;20090;-78
2024/01/02 05:47:14;;;;;;;1.65;1.10;;;;;;;6.19;71.62;95534.03;4957472;29;20075;-78
2024/01/02 05:49:42;;;;;;;3.92;1.88;;;;;;;6.22;72.17;95534.66;4955234;29;20088;-79
2024/01/02 05:52:11;;;;;;;1.55;1.10;;;;;;;6.22;72.35;95525.09;4955094;28;20062;-78
2024/01/02 05:54:38;;;;;;;2.92;1.30;;;;;;;6.24;72.07;95514.56;4972642;29;20106;-78
2024/01/02 05:57:06;;;;;;;2.13;1.20;;;;;;;6.28;72.58;95513.25;4971392;29;20047;-79
2024/01/02 05:59:34;;;;;;;1.05;1.00;;;;;;;6.29;72.26;95510.44;4958105;28;20556;-79
2024/01/02 06:02:01;;;;;;;1.25;1.10;;;;;;;6.31;72.66;95512.88;4955465;29;20047;-78
2024/01/02 06:04:29;;;;;;;2.95;0.98;;;;;;;6.32;72.61;95509.28;4954856;28;20051;-78
2024/01/02 06:06:57;;;;;;;2.72;1.13;;;;;;;6.34;72.99;95502.94;4955192;28;20055;-78
2024/01/02 06:09:26;;;;;;;4.10;1.08;;;;;;;6.36;73.45;95490.63;4954890;29;20106;-79
2024/01/02 06:11:53;;;;;;;1.95;1.40;;;;;;;6.39;72.89;95497.22;4955501;29;20043;-79
2024/01/02 06:14:21;;;;;;;2.75;1.13;;;;;;;6.39;72.79;95490.25;4956387;28;20055;-78
2024/01/02 06:16:48;;;;;;;3.92;1.23;;;;;;;6.40;73.05;95485.88;4955266;29;20055;-79
2024/01/02 06:19:18;;;;;;;2.15;0.80;;;;;;;6.43;73.03;95487.28;4955503;29;20051;-79
2024/01/02 06:21:47;;;;;;;1.92;0.90;;;;;;;6.44;73.09;95481.94;4955029;29;20058;-78
2024/01/02 06:24:14;;;;;;;1.67;1.20;;;;;;;6.44;73.11;95470.75;4953092;29;20058;-77
2024/01/02 06:26:43;;;;;;;2.75;1.00;;;;;;;6.44;73.00;95483.72;4938765;29;20048;-78
2024/01/02 06:29:11;;;;;;;2.13;1.02;;;;;;;6.43;72.88;95472.56;4940536;29;20055;-78
2024/01/02 06:31:39;;;;;;;0.95;0.60;;;;;;;6.43;73.27;95475.16;4946059;29;20182;-78
2024/01/02 06:34:06;;;;;;;1.55;0.63;;;;;;;6.43;73.53;95475.16;4936246;29;20047;-77
2024/01/02 06:36:34;;;;;;;1.42;0.88;;;;;;;6.44;73.45;95474.16;4936580;29;20070;-79
2024/01/02 06:39:02;;;;;;;1.88;0.90;;;;;;;6.45;73.48;95468.00;4937149;29;20142;-78
2024/01/02 06:41:30;;;;;;;2.53;0.93;;;;;;;6.46;73.56;95466.22;4954287;29;20104;-77
2024/01/02 06:43:58;;;;;;;1.00;0.45;;;;;;;6.48;73.87;95457.25;4953568;29;20473;-78
2024/01/02 06:46:26;;;;;;;0.57;0.45;;;;;;;6.51;73.58;95453.50;4948720;28;20048;-78
2024/01/02 06:48:54;;;;;;;1.58;1.27;;;;;;;6.53;73.90;95441.97;4953533;29;20055;-77
2024/01/02 06:51:21;;;;;;;0.85;0.68;;;;;;;6.54;73.60;95446.16;4954251;29;20090;-77
2024/01/02 06:53:49;;;;;;;2.08;0.80;;;;;;;6.53;73.88;95433.38;4954036;28;20098;-78
2024/01/02 06:56:17;;;;;;;1.85;1.02;;;;;;;6.52;74.07;95442.16;4952776;28;20138;-78
2024/01/02 06:58:45;;;;;;;1.77;0.80;;;;;;;6.52;74.18;95430.00;4953895;28;20101;-77
2024/01/02 07:01:17;;;;;;;0.73;0.63;;;;;;;6.52;74.28;95427.41;4952684;29;20057;-77
2024/01/02 07:03:45;;;;;;;0.52;0.52;;;;;;;6.53;74.23;95434.19;4954548;28;20122;-78
2024/01/02 07:06:12;;;;;;;1.48;1.08;;;;;;;6.50;74.07;95431.97;4954689;28;20201;-79
2024/01/02 07:08:40;;;;;;;1.15;0.52;;;;;;;6.49;74.45;95427.75;4946488;29;20055;-78
2024/01/02 07:11:08;;;;;;;0.60;0.50;;;;;;;6.49;74.77;95420.00;4946231;29;20119;-77
2024/01/02 07:13:35;;;;;;;1.58;0.40;;;;;;;6.51;75.08;95432.78;4940838;28;20051;-77
2024/01/02 07:16:03;;;;;;;0.77;0.47;;;;;;;6.48;74.65;95430.56;4943253;28;20054;-76
2024/01/02 07:18:33;;;;;;;1.35;0.50;;;;;;;6.49;74.97;95417.41;4943857;29;20448;-76
2024/01/02 07:21:01;;;;;;;0.60;0.40;;;;;;;6.49;75.16;95424.38;4948384;28;20559;-77
2024/01/02 07:23:28;;;;;;;0.88;0.50;;;;;;;6.51;75.02;95425.78;4942493;28;20058;-77
2024/01/02 07:25:56;;;;;;;0.45;0.32;;;;;;;6.51;75.00;95415.44;4936499;29;20052;-76
2024/01/02 07:28:23;;;;;;;0.40;0.40;;;;;;;6.55;75.29;95416.66;4944025;29;20051;-77
2024/01/02 07:30:51;;;;;;;2.30;0.52;;;;;;;6.58;75.50;95418.91;4938217;29;20082;-77
2024/01/02 07:33:19;;;;;;;0.55;0.32;;;;;;;6.60;75.35;95414.34;4947053;29;20050;-80
2024/01/02 07:35:48;;;;;;;1.77;0.40;;;;;;;6.62;75.64;95416.72;4947368;29;20047;-79
2024/01/02 07:38:16;;;;;;;0.30;0.30;;;;;;;6.65;75.57;95410.38;4949033;29;20059;-78
2024/01/02 07:40:43;;;;;;;1.02;0.38;;;;;;;6.63;75.70;95409.78;4945581;29;20055;-80
2024/01/02 07:43:11;;;;;;;0.13;0.13;;;;;;;6.60;75.94;95403.97;4955027;28;20083;-80
2024/01/02 07:45:38;;;;;;;1.80;0.20;;;;;;;6.59;76.33;95401.56;4949612;29;20082;-79
2024/01/02 07:48:07;;;;;;;0.63;0.32;;;;;;;6.60;76.25;95398.78;4959016;29;20083;-77
2024/01/02 07:50:35;;;;;;;0.57;0.28;;;;;;;6.63;76.66;95407.19;4945597;28;20091;-79
2024/01/02 07:53:04;;;;;;;0.35;0.35;;;;;;;6.65;76.69;95392.22;4937308;29;20051;-79
2024/01/02 07:55:31;;;;;;;0.40;0.40;;;;;;;6.67;76.60;95398.84;4941976;29;20062;-79
2024/01/02 07:57:59;;;;;;;2.00;0.40;;;;;;;6.67;76.72;95392.84;4938858;29;20126;-78
2024/01/02 08:00:26;;;;;;;0.32;0.22;;;;;;;6.68;76.87;95391.88;4949320;28;20112;-79
2024/01/02 08:02:54;;;;;;;0.40;0.20;;;;;;;6.69;76.96;95393.47;4946627;29;20055;-79
2024/01/02 08:05:21;;;;;;;0.30;0.30;;;;;;;6.70;76.77;95382.13;4941403;29;20138;-79
2024/01/02 08:07:49;;;;;;;0.25;0.22;;;;;;;6.73;77.17;95394.69;4948889;28;20054;-76
2024/01/02 08:10:18;;;;;;;0.28;0.28;;;;;;;6.75;77.29;95379.75;4955947;29;20079;-77
2024/01/02 08:12:45;;;;;;;0.82;0.50;;;;;;;6.77;77.44;95382.97;4956197;29;20048;-77
2024/01/02 08:15:14;;;;;;;0.45;0.20;;;;;;;6.78;77.25;95384.59;4959545;28;20091;-77
2024/01/02 08:18:00;;;;;;;0.82;0.38;;;;;;;6.80;77.00;95383.41;4939359;29;20130;-77
2024/01/02 08:20:30;;;;;;;0.28;0.28;;;;;;;6.81;76.89;95373.81;4937996;29;20064;-77
2024/01/02 08:22:57;;;;;;;0.73;0.20;;;;;;;6.83;76.88;95386.59;4939337;29;20051;-78
2024/01/02 08:25:26;;;;;;;0.60;0.30;;;;;;;6.84;76.85;95389.00;4956934;28;20111;-77
2024/01/02 08:27:54;;;;;;;0.20;0.20;;;;;;;6.86;77.39;95389.59;4955467;29;20167;-77
2024/01/02 08:30:21;;;;;;;1.70;0.30;;;;;;;6.89;77.60;95398.81;4955600;29;20051;-77
2024/01/02 08:32:49;;;;;;;0.63;0.22;;;;;;;6.91;77.51;95387.28;4950678;29;20047;-77
2024/01/02 08:35:17;;;;;;;1.02;0.30;;;;;;;6.94;77.71;95399.06;4938236;29;20062;-77
2024/01/02 08:37:44;;;;;;;4.25;0.47;;;;;;;6.93;77.29;95400.84;4937947;29;20086;-76
2024/01/02 08:40:13;;;;;;;2.70;0.52;;;;;;;6.96;77.75;95407.44;4937988;29;20451;-77
2024/01/02 08:42:42;;;;;;;1.52;0.30;;;;;;;6.97;77.89;95412.41;4938039;29;20090;-77
2024/01/02 08:45:10;;;;;;;0.60;0.38;;;;;;;7.00;78.11;95393.13;4938279;28;20056;-77
2024/01/02 08:47:38;;;;;;;0.65;0.20;;;;;;;7.03;77.74;95408.28;4956552;29;20051;-77
2024/01/02 08:50:07;;;;;;;0.98;0.32;;;;;;;7.06;78.10;95407.91;4956712;29;20121;-77
2024/01/02 08:52:36;;;;;;;0.65;0.32;;;;;;;7.09;77.99;95411.94;4956127;28;20500;-78
2024/01/02 08:55:04;;;;;;;0.50;0.50;;;;;;;7.12;78.19;95406.34;4956357;28;20059;-77
2024/01/02 08:57:32;;;;;;;0.50;0.30;;;;;;;7.16;78.15;95398.00;4954457;29;20493;-79
2024/01/02 09:00:01;;;;;;;0.47;0.28;;;;;;;7.20;78.07;95394.03;4954368;29;20138;-79
2024/01/02 09:02:29;;;;;;;2.10;0.30;;;;;;;7.24;78.02;95394.47;4947678;29;20055;-78
2024/01/02 09:04:56;;;;;;;0.40;0.20;;;;;;;7.27;78.22;95399.28;4960018;28;20035;-79
2024/01/02 09:07:24;;;;;;;1.88;0.20;;;;;;;7.30;78.31;95401.47;4952611;28;20058;-79
2024/01/02 09:09:52;;;;;;;0.25;0.25;;;;;;;7.33;78.46;95403.69;4938687;29;20086;-79
2024/01/02 09:12:19;;;;;;;0.17;0.10;;;;;;;7.37;78.32;95393.75;4941850;29;20134;-79
2024/01/02 09:14:47;;;;;;;0.35;0.30;;;;;;;7.41;78.14;95394.94;4940269;29;20678;-80
2024/01/02 09:17:16;;;;;;;1.27;0.30;;;;;;;7.45;78.14;95405.75;4961507;29;20063;-80
2024/01/02 09:19:45;;;;;;;0.28;0.28;;;;;;;7.49;77.78;95394.81;4955382;29;20051;-79
2024/01/02 09:22:12;;;;;;;0.57;0.50;;;;;;;7.50;78.35;95404.19;4955229;28;20057;-81
2024/01/02 09:24:41;;;;;;;0.60;0.50;;;;;;;7.53;78.62;95403.00;4955996;29;20510;-80
2024/01/02 09:27:13;;;;;;;1.15;0.50;;;;;;;7.56;78.53;95403.41;4954589;28;20051;-80
2024/01/02 09:29:40;;;;;;;0.85;0.50;;;;;;;7.60;78.32;95399.44;4937552;29;20052;-81
2024/01/02 09:32:10;;;;;;;3.03;0.70;;;;;;;7.65;78.58;95409.25;4937979;29;20051;-80
2024/01/02 09:34:41;;;;;;;1.02;0.85;;;;;;;7.69;78.77;95413.06;4936623;29;20048;-80
2024/01/02 09:37:08;;;;;;;0.70;0.57;;;;;;;7.73;78.65;95411.69;4937088;29;20491;-80
2024/01/02 09:39:36;;;;;;;2.78;0.50;;;;;;;7.75;78.44;95420.09;4938783;29;20186;-81
2024/01/02 09:42:20;;;;;;;1.23;0.50;;;;;;;7.79;78.97;95413.50;4936769;29;20140;-81
2024/01/02 09:44:57;;;;;;;0.20;0.20;;;;;;;7.83;78.67;95419.94;4937326;29;20047;-80
2024/01/02 09:47:42;;;;;;;0.30;0.30;;;;;;;7.87;78.92;95424.72;4946102;28;20048;-81
2024/01/02 09:50:12;;;;;;;1.10;0.68;;;;;;;7.89;78.70;95417.53;4936657;29;20056;-79
2024/01/02 09:53:01;;;;;;;1.20;0.45;;;;;;;7.92;79.09;95412.78;4951036;29;20139;-81
2024/01/02 09:55:34;;;;;;;1.65;0.60;;;;;;;7.94;78.81;95420.38;4955166;29;20094;-81
2024/01/02 09:58:18;;;;;;;0.60;0.40;;;;;;;7.96;78.71;95420.97;4941984;29;20103;-81
2024/01/02 10:00:56;;;;;;;0.40;0.40;;;;;;;7.97;78.79;95422.56;4942071;29;21453;-80
2024/01/02 10:03:38;;;;;;;2.92;0.43;;;;;;;7.98;78.99;95425.00;4949524;28;20039;-80
2024/01/02 10:06:34;;;;;;;0.50;0.40;;;;;;;8.02;79.44;95417.59;4937200;29;20047;-80
2024/01/02 10:09:17;;;;;;;0.22;0.17;;;;;;;8.04;79.15;95420.78;4945795;29;20054;-81
2024/01/02 10:11:54;;;;;;;1.90;0.40;;;;;;;8.05;79.03;95415.41;4953097;29;20051;-80
2024/01/02 10:14:28;;;;;;;1.42;0.30;;;;;;;8.05;79.35;95412.03;4952972;29;20051;-79
2024/01/02 10:17:06;;;;;;;0.20;0.20;;;;;;;8.07;79.74;95410.03;4936065;29;20063;-79
2024/01/02 10:19:45;;;;;;;1.55;1.35;;;;;;;8.07;79.64;95396.22;4950593;28;20649;-79
2024/01/02 10:22:25;;;;;;;0.80;0.32;;;;;;;8.10;79.71;95403.66;4952688;29;20054;-78
2024/01/02 10:25:00;;;;;;;0.13;0.10;;;;;;;8.11;79.20;95400.84;4952536;29;20066;-78
2024/01/02 10:27:37;;;;;;;0.70;0.30;;;;;;;8.14;79.86;95413.44;4955305;28;20082;-79
2024/01/02 10:30:06;;;;;;;0.20;0.20;;;;;;;8.18;79.46;95406.06;4954437;29;20491;-77
2024/01/02 10:32:47;;;;;;;0.85;0.32;;;;;;;8.21;79.61;95396.06;4935977;29;20054;-78
2024/01/02 10:35:20;;;;;;;0.50;0.50;;;;;;;8.25;79.30;95396.50;4949297;29;20137;-78
2024/01/02 10:38:05;;;;;;;0.63;0.40;;;;;;;8.27;79.42;95385.91;4939852;29;20461;-78
2024/01/02 10:40:34;;;;;;;0.55;0.35;;;;;;;8.31;78.94;95394.88;4939659;29;20477;-78
2024/01/02 10:43:10;;;;;;;0.50;0.50;;;;;;;8.32;79.38;95397.28;4934627;29;20134;-78
2024/01/02 10:45:47;;;;;;;0.57;0.30;;;;;;;8.36;79.47;95384.72;4935330;29;20048;-78
2024/01/02 10:48:28;;;;;;;0.43;0.30;;;;;;;8.37;79.32;95383.72;4935713;29;20058;-77
2024/01/02 10:51:03;;;;;;;0.52;0.30;;;;;;;8.38;79.14;95380.13;4952399;29;20051;-78
2024/01/02 10:53:45;;;;;;;0.75;0.40;;;;;;;8.40;79.51;95375.53;4939128;29;20052;-78
2024/01/02 10:56:27;;;;;;;0.80;0.40;;;;;;;8.39;79.51;95379.13;4939802;29;20056;-78
2024/01/02 10:59:03;;;;;;;1.92;0.47;;;;;;;8.39;79.31;95379.13;4957918;28;20055;-78
2024/01/02 11:01:34;;;;;;;1.48;0.68;;;;;;;8.39;79.56;95377.31;4953593;28;20047;-78
2024/01/02 11:04:12;;;;;;;0.60;0.50;;;;;;;8.44;79.79;95384.56;4946212;29;20138;-78
2024/01/02 11:06:45;;;;;;;0.45;0.40;;;;;;;8.47;79.57;95371.16;4940662;29;20048;-78
2024/01/02 11:09:24;;;;;;;0.68;0.20;;;;;;;8.50;79.66;95370.75;4950525;28;20055;-78
2024/01/02 11:11:52;;;;;;;0.47;0.28;;;;;;;8.53;79.40;95365.19;4958020;28;20496;-79
2024/01/02 11:14:43;;;;;;;1.88;0.63;;;;;;;8.56;79.49;95345.78;4958044;28;20047;-78
2024/01/02 11:17:15;;;;;;;0.53;0.40;;;;;;;8.60;79.44;95352.97;4955162;29;20047;-79
2024/01/02 11:19:52;;;;;;;1.27;0.52;;;;;;;8.63;79.28;95347.38;4958145;29;20055;-81
2024/01/02 11:22:26;;;;;;;0.50;0.50;;;;;;;8.68;79.29;95352.00;4952774;29;20086;-82
2024/01/02 11:25:01;;;;;;;1.25;0.65;;;;;;;8.68;79.40;95352.00;4953514;28;20047;-82
2024/01/02 11:27:31;;;;;;;0.65;0.40;;;;;;;8.71;79.37;95345.59;4956229;29;20633;-80
2024/01/02 11:30:02;;;;;;;0.25;0.20;;;;;;;8.71;79.31;95343.00;4949952;29;20059;-82
2024/01/02 11:32:39;;;;;;;3.03;0.30;;;;;;;8.75;79.33;95349.41;4950307;29;20050;-82
2024/01/02 11:35:08;;;;;;;0.30;0.28;;;;;;;8.78;79.24;95338.59;4957380;28;20051;-82
2024/01/02 11:37:37;;;;;;;1.85;0.47;;;;;;;8.80;79.14;95329.56;4957521;28;20051;-81
2024/01/02 11:40:17;;;;;;;0.22;0.22;;;;;;;8.83;78.97;95324.00;4951293;29;20452;-80
2024/01/02 11:42:54;;;;;;;0.73;0.30;;;;;;;8.85;79.12;95316.78;4937837;29;20083;-81
2024/01/02 11:45:22;;;;;;;0.55;0.55;;;;;;;8.88;78.88;95312.97;4950903;29;20047;-81
2024/01/02 11:48:05;;;;;;;0.30;0.30;;;;;;;8.89;78.73;95305.97;4956553;28;20512;-81
2024/01/02 11:50:46;;;;;;;0.43;0.43;;;;;;;8.91;79.24;95296.16;4954078;29;20047;-81
2024/01/02 11:53:23;;;;;;;0.40;0.20;;;;;;;8.94;78.92;95295.75;4947596;29;20062;-81